Etusivu
METAR-TAF:

METAR-TAF

Lentoasemat :

Tindouf, Algeria

Leveyspiiri: 27-40N, Pituuspiiri: 008-08W, korkeus merenpinnasta: 431 m

Tämänhetkinen sää

Tämä raportti tehtiin 1 tunti ja 2 minuuttia sitten, kello 19.00 UTC
Tuuli 2 kn idästä/kaakosta
Lämpötila 19°C
Kosteus 28%
Ilmanpaine 1019 hPa
Näkyvyys 10 km tai enemmän
ei pilviä alle 1500 m:ssä eikä cumulonimbus-pilviä

METAR: DAOF 241900Z 11002KT CAVOK 19/M00 Q1019

Aika: 21:02 (20:02 UTC)

Sääennuste

Tämä raportti tehtiin 3 tuntia ja 2 minuuttia sitten, kello 17.00 UTC
Ennuste voimassa 24. päivästä klo 18 UTC - 25. päivään klo 03 UTC
Tuuli 6 kn etelästä
Näkyvyys 10 km tai enemmän
ei pilviä alle 1500 m:ssä eikä cumulonimbus-pilviä

TAF: DAOF 241700Z 2418/2503 18006KT CAVOK

Säähavainnot ja -ennusteet yli 4000 lentoasemalta (METAR- ja TAF-raportit).

Käytössä olevat sääasemat on merkitty karttaan keltaisilla ja punaisilla pisteillä.

Aseta hiiri pisteen päälle nähdäksesi sääaseman nimen.

Klikkaa sitten nähdäksesi säähavainnot ja -ennusteet.

Kartan vaihtaminen: klikkaa mustalla rastilla varustettuja vihreitä pisteitä, niin voit zoomata sisään; viivalla varustettua vihreää pistettä, niin voit zoomata ulos tai vihreitä nuolia, niin pääset viereisille kartoille.


METAR-TAF: